Main page
METAR-TAF:

METAR-TAF

Airports :

Kalaleh Airport

Kalaleh, Iran

latitude: 37-22-60N, longitude: 55-27-07E, elevation: 130 m

Current weather observation

The report was made 16 minutes ago, at 16:00 UTC
Wind 10 kt from the West/Southwest
Temperature 31°C
Humidity 33%
Pressure 1006 hPa
Visibility 10 km or more
Few clouds at a height of 3000 ft
Scattered clouds at a height of 10000 ft

METAR: OINE 231600Z 24010KT 9999 FEW030 SCT100 31/13 Q1006

Time: 20:46 (16:16 UTC)


TAF: missing

Weather observations and forecasts of more than 4000 airports (METAR and TAF reports).

The available stations are represented by yellow and red dots on the map.

Hover mouse over dot to see the name of the station.

Then click to see weather observations and forecasts.

To change the map : click on the green buttons with a black cross to zoom in, on the green button with a dash to zoom out, or on the green arrows for adjacent maps.


METAR-TAF: